createdAt,value
2022-09-05T00:00:12.578Z,4.03
2022-09-05T00:02:49.799Z,4.17
2022-09-05T00:05:22.193Z,3.30
2022-09-05T00:08:19.549Z,3.83
2022-09-05T00:11:12.775Z,4.20
2022-09-05T00:13:51.398Z,5.10
2022-09-05T00:16:36.601Z,3.43
2022-09-05T00:23:54.227Z,5.30
2022-09-05T00:24:31.663Z,4.00
2022-09-05T00:25:32.431Z,4.23
2022-09-05T00:28:25.386Z,4.23
2022-09-05T00:31:55.175Z,3.80
2022-09-05T00:34:00.724Z,3.20
2022-09-05T00:36:30.284Z,4.40
2022-09-05T00:39:02.452Z,3.90
2022-09-05T00:41:32.862Z,4.60
2022-09-05T00:44:02.233Z,4.70
2022-09-05T00:46:34.333Z,3.97
2022-09-05T00:49:10.083Z,4.30
2022-09-05T00:51:53.290Z,4.93
2022-09-05T00:54:44.611Z,3.93
2022-09-05T00:57:28.269Z,4.33
2022-09-05T01:00:00.949Z,3.33
2022-09-05T01:03:10.052Z,4.20
2022-09-05T01:06:09.407Z,4.57
2022-09-05T01:08:47.430Z,4.70
2022-09-05T01:11:28.247Z,5.10
2022-09-05T01:14:05.429Z,5.50
2022-09-05T01:16:45.212Z,4.70
2022-09-05T01:19:48.690Z,5.03
2022-09-05T01:22:22.279Z,4.70
2022-09-05T01:25:26.064Z,4.43
2022-09-05T01:29:17.248Z,5.43
2022-09-05T01:31:00.753Z,4.87
2022-09-05T01:33:54.105Z,5.30
2022-09-05T01:36:56.196Z,4.87
2022-09-05T01:40:14.009Z,4.30
2022-09-05T01:42:42.262Z,5.73
2022-09-05T01:45:39.425Z,4.60
2022-09-05T01:48:14.000Z,5.00
2022-09-05T01:50:48.484Z,5.47
2022-09-05T01:53:33.987Z,6.50
2022-09-05T01:56:37.527Z,5.30
2022-09-05T01:59:29.150Z,5.13
2022-09-05T02:02:25.658Z,4.60
2022-09-05T02:05:01.267Z,5.47
2022-09-05T02:07:31.762Z,4.80
2022-09-05T02:10:16.981Z,5.07
2022-09-05T02:13:01.908Z,4.87
2022-09-05T02:15:51.177Z,4.70
2022-09-05T02:18:45.925Z,4.47
2022-09-05T02:21:24.680Z,5.50
2022-09-05T02:24:13.367Z,6.73
2022-09-05T02:26:48.580Z,5.03
2022-09-05T02:29:28.457Z,5.30
2022-09-05T02:32:19.136Z,5.07
2022-09-05T02:34:57.060Z,4.33
2022-09-05T02:38:43.936Z,5.70
2022-09-05T02:45:06.736Z,4.50
2022-09-05T02:45:14.351Z,4.83
2022-09-05T02:46:27.302Z,5.20
2022-09-05T02:49:09.045Z,6.37
2022-09-05T02:57:26.825Z,4.80
2022-09-05T02:57:37.966Z,4.83
2022-09-05T02:58:07.366Z,4.80
2022-09-05T03:00:44.886Z,4.97
2022-09-05T03:03:17.823Z,4.37
2022-09-05T03:05:47.199Z,4.73
2022-09-05T03:08:26.896Z,7.00
2022-09-05T03:11:39.598Z,4.70
2022-09-05T03:14:30.739Z,4.40
2022-09-05T03:17:09.405Z,5.37
2022-09-05T03:19:54.009Z,5.03
2022-09-05T03:22:33.622Z,5.13
2022-09-05T03:25:30.496Z,5.27
2022-09-05T03:28:23.196Z,5.03
2022-09-05T03:31:06.062Z,4.60
2022-09-05T03:33:32.518Z,4.53
2022-09-05T03:36:11.406Z,4.87
2022-09-05T03:39:15.078Z,4.60
2022-09-05T03:42:02.934Z,5.00
2022-09-05T03:44:35.394Z,4.20
2022-09-05T03:47:25.247Z,4.40
2022-09-05T03:52:11.757Z,5.37
2022-09-05T03:57:15.452Z,4.63
2022-09-05T03:57:18.917Z,4.27
2022-09-05T03:59:06.667Z,4.13
2022-09-05T04:03:26.964Z,4.90
2022-09-05T04:08:14.027Z,4.50
2022-09-05T04:08:15.654Z,4.50
2022-09-05T04:10:43.546Z,4.20
2022-09-05T04:13:31.577Z,4.27
2022-09-05T04:16:23.344Z,4.40
2022-09-05T04:19:11.243Z,4.80
2022-09-05T04:21:45.051Z,5.87
2022-09-05T04:24:24.387Z,5.07
2022-09-05T04:27:27.756Z,4.70
2022-09-05T04:29:58.541Z,4.17
2022-09-05T04:32:39.971Z,4.20
2022-09-05T04:35:24.950Z,5.37
2022-09-05T04:38:07.570Z,5.30
2022-09-05T04:40:43.258Z,4.80
2022-09-05T04:43:18.707Z,4.23
2022-09-05T04:45:53.566Z,4.60
2022-09-05T04:48:27.840Z,4.20
2022-09-05T04:51:04.714Z,4.57
2022-09-05T04:54:10.109Z,4.53
2022-09-05T04:56:44.970Z,5.13
2022-09-05T05:01:00.400Z,5.03
2022-09-05T05:05:59.751Z,4.50
2022-09-05T05:06:17.347Z,6.50
2022-09-05T05:08:40.450Z,5.90
2022-09-05T05:17:54.253Z,4.03
2022-09-05T05:17:56.381Z,4.90
2022-09-05T05:18:08.140Z,4.40
2022-09-05T05:20:40.658Z,3.93
2022-09-05T05:23:07.738Z,3.87
2022-09-05T05:25:52.070Z,5.60
2022-09-05T05:28:41.940Z,4.80
2022-09-05T05:31:14.709Z,4.67
2022-09-05T05:33:46.548Z,4.03
2022-09-05T05:36:19.828Z,4.50
2022-09-05T05:38:53.638Z,5.57
2022-09-05T05:41:25.640Z,5.27
2022-09-05T05:43:52.367Z,4.40
2022-09-05T05:46:29.285Z,4.30
2022-09-05T05:49:04.644Z,4.70
2022-09-05T05:52:02.272Z,3.90
2022-09-05T05:55:50.248Z,5.47
2022-09-05T05:58:42.297Z,4.90
2022-09-05T06:01:37.754Z,4.53
2022-09-05T06:04:45.083Z,4.50
2022-09-05T06:09:12.774Z,4.50
2022-09-05T06:14:52.482Z,3.77
2022-09-05T06:15:07.081Z,4.83
2022-09-05T06:17:07.820Z,4.30
2022-09-05T06:22:04.172Z,4.50
2022-09-05T06:22:59.603Z,5.17
2022-09-05T06:26:02.897Z,5.00
2022-09-05T06:28:47.312Z,5.07
2022-09-05T06:31:29.870Z,4.90
2022-09-05T06:34:33.089Z,4.63
2022-09-05T06:37:16.621Z,4.00
2022-09-05T06:39:46.766Z,4.00
2022-09-05T06:42:42.416Z,4.40
2022-09-05T06:45:32.100Z,4.60
2022-09-05T06:48:24.937Z,4.03
2022-09-05T06:51:16.328Z,4.60
2022-09-05T06:54:20.364Z,4.10
2022-09-05T06:57:32.392Z,4.93
2022-09-05T07:00:04.496Z,4.70
2022-09-05T07:02:58.173Z,3.93
2022-09-05T07:05:44.760Z,4.00
2022-09-05T07:08:40.385Z,5.43
2022-09-05T07:11:20.749Z,4.73
2022-09-05T07:13:57.639Z,5.03
2022-09-05T07:16:39.482Z,4.20
2022-09-05T07:19:27.720Z,3.80
2022-09-05T07:22:06.388Z,4.30
2022-09-05T07:24:55.713Z,4.43
2022-09-05T07:28:29.009Z,5.13
2022-09-05T07:30:50.367Z,5.13
2022-09-05T07:33:20.644Z,4.63
2022-09-05T07:35:47.651Z,5.13
2022-09-05T07:38:21.435Z,4.83
2022-09-05T07:40:58.185Z,5.50
2022-09-05T07:43:27.413Z,5.27
2022-09-05T07:46:11.935Z,5.20
2022-09-05T07:48:48.243Z,4.93
2022-09-05T07:56:00.854Z,4.60
2022-09-05T07:57:13.318Z,4.87
2022-09-05T07:57:31.137Z,4.73
2022-09-05T08:00:06.777Z,4.57
2022-09-05T08:02:34.081Z,4.30
2022-09-05T08:05:05.253Z,3.97
2022-09-05T08:07:48.784Z,4.03
2022-09-05T08:11:22.090Z,4.90
2022-09-05T08:13:40.655Z,5.23
2022-09-05T08:16:13.527Z,4.47
2022-09-05T08:18:50.225Z,3.73
2022-09-05T08:21:31.211Z,4.40
2022-09-05T08:24:13.541Z,4.00
2022-09-05T08:27:16.222Z,4.43
2022-09-05T08:29:46.288Z,4.63
2022-09-05T08:32:21.661Z,4.40
2022-09-05T08:35:03.601Z,4.90
2022-09-05T08:37:31.687Z,3.90
2022-09-05T08:40:30.354Z,3.70
2022-09-05T08:46:36.633Z,4.13
2022-09-05T08:46:44.401Z,4.37
2022-09-05T08:49:37.014Z,4.53
2022-09-05T08:52:45.007Z,4.87
2022-09-05T08:55:17.525Z,4.57
2022-09-05T08:58:03.100Z,4.00
2022-09-05T09:00:36.248Z,3.70
2022-09-05T09:03:25.943Z,4.10
2022-09-05T09:06:14.426Z,4.70
2022-09-05T09:09:07.712Z,3.57
2022-09-05T09:12:14.545Z,5.00
2022-09-05T09:15:10.829Z,4.17
2022-09-05T09:17:47.066Z,3.60
2022-09-05T09:20:30.931Z,4.93
2022-09-05T09:23:04.452Z,4.20
2022-09-05T09:26:01.022Z,3.77
2022-09-05T09:29:06.930Z,3.87
2022-09-05T09:31:54.869Z,4.17
2022-09-05T09:34:28.817Z,4.13
2022-09-05T09:37:14.881Z,5.33
2022-09-05T09:40:13.322Z,4.23
2022-09-05T09:42:46.187Z,3.87
2022-09-05T09:45:28.819Z,4.13
2022-09-05T09:48:12.150Z,4.60
2022-09-05T09:51:00.684Z,4.20
2022-09-05T09:53:45.740Z,4.30
2022-09-05T09:56:31.937Z,4.47
2022-09-05T09:59:13.457Z,4.03
2022-09-05T10:01:53.485Z,4.30
2022-09-05T10:10:36.188Z,4.87
2022-09-05T10:10:49.219Z,4.63
2022-09-05T10:14:30.684Z,3.10
2022-09-05T10:17:13.471Z,3.90
2022-09-05T10:22:41.697Z,4.50
2022-09-05T10:25:29.616Z,4.90
2022-09-05T10:28:27.353Z,4.30
2022-09-05T10:33:52.647Z,4.57
2022-09-05T10:35:08.992Z,4.30
2022-09-05T10:37:05.413Z,3.73
2022-09-05T10:39:34.004Z,3.97
2022-09-05T10:42:07.159Z,4.23
2022-09-05T10:44:41.534Z,3.67
2022-09-05T10:47:11.633Z,5.07
2022-09-05T10:49:44.528Z,4.90
2022-09-05T10:52:35.227Z,4.70
2022-09-05T10:55:14.927Z,3.90
2022-09-05T10:59:19.129Z,4.00
2022-09-05T11:02:26.641Z,4.23
2022-09-05T11:04:29.761Z,5.20
2022-09-05T11:07:29.315Z,4.33
2022-09-05T11:10:05.867Z,3.80
2022-09-05T11:13:10.896Z,4.60
2022-09-05T11:16:03.743Z,3.80
2022-09-05T11:18:56.050Z,4.00
2022-09-05T11:21:28.632Z,4.17
2022-09-05T11:23:57.653Z,5.07
2022-09-05T11:26:27.448Z,4.50
2022-09-05T11:29:18.125Z,3.80
2022-09-05T11:34:18.184Z,4.13
2022-09-05T11:38:39.216Z,5.30
2022-09-05T11:40:06.174Z,5.47
2022-09-05T11:41:11.560Z,4.90
2022-09-05T11:44:24.621Z,3.87
2022-09-05T11:47:33.187Z,4.20
2022-09-05T11:50:09.080Z,4.17
2022-09-05T11:52:58.451Z,5.23
2022-09-05T11:55:27.935Z,4.60
2022-09-05T11:58:44.044Z,4.20
2022-09-05T12:01:41.703Z,4.10
2022-09-05T12:04:42.527Z,3.83
2022-09-05T12:07:37.696Z,4.20
2022-09-05T12:10:46.306Z,5.67
2022-09-05T12:13:02.867Z,3.80
2022-09-05T12:15:37.688Z,3.53
2022-09-05T12:18:31.075Z,4.23
2022-09-05T12:21:31.693Z,4.60
2022-09-05T12:25:15.841Z,3.80
2022-09-05T12:27:42.867Z,3.93
2022-09-05T12:30:00.058Z,4.07
2022-09-05T12:35:22.518Z,3.80
2022-09-05T12:36:13.305Z,4.43
2022-09-05T12:40:55.793Z,3.90
2022-09-05T12:42:07.458Z,4.30
2022-09-05T12:44:45.313Z,4.80
2022-09-05T12:47:19.146Z,4.50
2022-09-05T12:50:03.609Z,3.60
2022-09-05T12:52:46.732Z,3.80
2022-09-05T12:55:25.958Z,4.30
2022-09-05T13:02:29.425Z,3.90
2022-09-05T13:03:01.749Z,3.83
2022-09-05T13:03:59.333Z,3.80
2022-09-05T13:06:28.804Z,4.27
2022-09-05T13:09:01.542Z,4.47
2022-09-05T13:15:00.588Z,4.27
2022-09-05T13:15:02.613Z,4.30
2022-09-05T13:17:15.749Z,4.10
2022-09-05T13:19:51.894Z,3.90
2022-09-05T13:22:21.802Z,5.87
2022-09-05T13:25:04.942Z,5.63
2022-09-05T13:27:39.579Z,5.00
2022-09-05T13:33:38.762Z,4.90
2022-09-05T13:38:04.070Z,4.93
2022-09-05T13:38:05.803Z,5.10
2022-09-05T13:39:06.309Z,5.43
2022-09-05T13:41:45.691Z,4.77
2022-09-05T13:44:26.676Z,5.53
2022-09-05T13:47:29.559Z,5.10
2022-09-05T13:50:20.105Z,4.50
2022-09-05T13:52:53.302Z,4.60
2022-09-05T13:55:21.636Z,4.97
2022-09-05T13:57:56.556Z,4.77
2022-09-05T14:00:38.815Z,5.20
2022-09-05T14:03:37.983Z,4.73
2022-09-05T14:06:08.595Z,5.40
2022-09-05T14:12:08.561Z,4.40
2022-09-05T14:18:20.502Z,4.83
2022-09-05T14:21:17.278Z,4.30
2022-09-05T14:24:03.188Z,4.90
2022-09-05T14:26:44.104Z,4.83
2022-09-05T14:29:14.050Z,4.30
2022-09-05T14:36:34.812Z,4.67
2022-09-05T14:38:00.874Z,4.40
2022-09-05T14:38:15.701Z,5.20
2022-09-05T14:41:16.216Z,4.43
2022-09-05T14:43:56.142Z,4.60
2022-09-05T14:46:42.112Z,5.67
2022-09-05T14:49:18.590Z,5.17
2022-09-05T14:51:51.017Z,4.63
2022-09-05T15:01:58.112Z,6.00
2022-09-05T15:02:44.339Z,4.73
2022-09-05T15:03:07.649Z,5.57
2022-09-05T15:05:46.493Z,4.60
2022-09-05T15:11:24.242Z,5.43
2022-09-05T15:12:21.743Z,5.10
2022-09-05T15:14:02.462Z,8.03
2022-09-05T15:16:30.074Z,5.30
2022-09-05T15:18:58.394Z,7.30
2022-09-05T15:21:41.439Z,5.10
2022-09-05T15:24:21.340Z,5.20
2022-09-05T15:26:56.908Z,4.90
2022-09-05T15:29:26.208Z,6.10
2022-09-05T15:32:09.573Z,6.20
2022-09-05T15:34:38.557Z,4.97
2022-09-05T15:37:26.409Z,5.40
2022-09-05T15:40:22.482Z,5.43
2022-09-05T15:42:55.128Z,4.87
2022-09-05T15:45:46.880Z,5.73
2022-09-05T15:48:21.928Z,5.77
2022-09-05T15:50:51.662Z,5.40
2022-09-05T15:53:24.973Z,5.43
2022-09-05T15:55:52.348Z,4.30
2022-09-05T15:58:27.095Z,5.10
2022-09-05T16:00:56.623Z,5.50
2022-09-05T16:03:58.167Z,5.00
2022-09-05T16:10:45.832Z,5.03
2022-09-05T16:10:48.540Z,5.27
2022-09-05T16:12:29.925Z,5.10
2022-09-05T16:15:39.435Z,4.93
2022-09-05T16:23:17.853Z,4.70
2022-09-05T16:23:29.886Z,5.47
2022-09-05T16:23:41.399Z,5.10
2022-09-05T16:26:25.614Z,5.50
2022-09-05T16:29:10.949Z,5.40
2022-09-05T16:31:47.693Z,5.73
2022-09-05T16:34:43.556Z,4.47
2022-09-05T16:37:13.382Z,5.07
2022-09-05T16:40:12.844Z,7.00
2022-09-05T16:42:47.212Z,6.30
2022-09-05T16:45:36.983Z,4.80
2022-09-05T16:48:06.204Z,4.90
2022-09-05T16:50:52.888Z,6.23
2022-09-05T16:53:48.160Z,5.13
2022-09-05T16:56:34.523Z,6.20
2022-09-05T16:59:06.736Z,5.00
2022-09-05T17:02:05.810Z,5.13
2022-09-05T17:05:11.570Z,5.80
2022-09-05T17:08:22.635Z,5.80
2022-09-05T17:10:57.906Z,6.83
2022-09-05T17:13:37.759Z,8.73
2022-09-05T17:16:05.644Z,10.07
2022-09-05T17:18:34.959Z,19.27
2022-09-05T17:21:08.068Z,50.33
2022-09-05T17:29:18.474Z,21.10
2022-09-05T17:29:33.948Z,6.77
2022-09-05T17:32:39.822Z,6.00
2022-09-05T17:35:22.904Z,11.20
2022-09-05T17:38:28.438Z,11.17
2022-09-05T17:41:09.459Z,8.90
2022-09-05T17:43:41.488Z,8.43
2022-09-05T17:46:23.696Z,6.00
2022-09-05T17:49:02.575Z,6.17
2022-09-05T17:51:38.224Z,7.50
2022-09-05T17:54:08.532Z,5.20
2022-09-05T17:56:37.477Z,6.30
2022-09-05T17:59:24.970Z,6.30
2022-09-05T18:02:14.697Z,6.67
2022-09-05T18:04:41.148Z,6.33
2022-09-05T18:07:23.014Z,7.27
2022-09-05T18:10:12.501Z,7.17
2022-09-05T18:13:13.090Z,6.73
2022-09-05T18:15:31.813Z,7.30
2022-09-05T18:18:04.006Z,4.70
2022-09-05T18:20:36.448Z,6.43
2022-09-05T18:23:41.082Z,5.00
2022-09-05T18:26:09.506Z,5.60
2022-09-05T18:28:39.107Z,6.03
2022-09-05T18:31:51.662Z,5.33
2022-09-05T18:34:21.421Z,5.53
2022-09-05T18:36:58.035Z,5.40
2022-09-05T18:39:27.779Z,5.60
2022-09-05T18:42:07.113Z,5.23
2022-09-05T18:44:59.523Z,4.90
2022-09-05T18:47:59.126Z,5.00
2022-09-05T18:50:29.133Z,6.13
2022-09-05T18:53:09.364Z,5.70
2022-09-05T18:56:09.255Z,5.43
2022-09-05T18:58:29.019Z,6.77
2022-09-05T19:01:16.036Z,5.93
2022-09-05T19:03:49.137Z,5.47
2022-09-05T19:06:34.565Z,5.27
2022-09-05T19:09:08.008Z,5.57
2022-09-05T19:11:53.024Z,6.00
2022-09-05T19:14:45.576Z,6.07
2022-09-05T19:17:47.366Z,6.37
2022-09-05T19:20:31.305Z,6.53
2022-09-05T19:23:13.193Z,5.80
2022-09-05T19:25:47.926Z,6.37
2022-09-05T19:36:15.721Z,6.00
2022-09-05T19:36:50.676Z,6.90
2022-09-05T19:36:51.772Z,6.77
2022-09-05T19:37:26.124Z,5.90
2022-09-05T19:43:07.422Z,5.20
2022-09-05T19:47:42.238Z,6.53
2022-09-05T19:47:44.713Z,5.43
2022-09-05T19:48:29.317Z,6.90
2022-09-05T19:51:17.552Z,8.17
2022-09-05T19:54:03.752Z,6.50
2022-09-05T19:56:37.737Z,6.63
2022-09-05T19:59:23.071Z,5.47
2022-09-05T20:01:52.020Z,7.57
2022-09-05T20:04:20.013Z,6.73
2022-09-05T20:06:48.132Z,6.00
2022-09-05T20:09:22.962Z,6.27
2022-09-05T20:11:54.920Z,5.83
2022-09-05T20:14:24.692Z,4.80
2022-09-05T20:16:54.478Z,5.43
2022-09-05T20:19:33.026Z,5.63
2022-09-05T20:22:46.824Z,7.60
2022-09-05T20:24:57.694Z,6.10
2022-09-05T20:27:29.425Z,8.20
2022-09-05T20:30:05.750Z,6.27
2022-09-05T20:32:40.056Z,6.93
2022-09-05T20:37:14.194Z,7.40
2022-09-05T20:43:15.200Z,6.60
2022-09-05T20:43:15.898Z,6.77
2022-09-05T20:43:58.252Z,6.43
2022-09-05T20:48:19.447Z,6.30
2022-09-05T20:54:13.189Z,6.60
2022-09-05T20:54:13.190Z,6.03
2022-09-05T20:55:39.621Z,7.10
2022-09-05T20:58:19.808Z,6.90
2022-09-05T21:01:19.828Z,8.70
2022-09-05T21:04:04.957Z,6.40
2022-09-05T21:06:34.309Z,7.97
2022-09-05T21:09:11.392Z,7.53
2022-09-05T21:11:38.055Z,7.30
2022-09-05T21:14:05.224Z,7.53
2022-09-05T21:16:44.776Z,6.83
2022-09-05T21:19:26.844Z,6.67
2022-09-05T21:22:20.455Z,7.70
2022-09-05T21:24:47.493Z,7.07
2022-09-05T21:27:22.838Z,6.20
2022-09-05T21:29:58.768Z,5.93
2022-09-05T21:32:30.232Z,6.13
2022-09-05T21:35:17.415Z,6.50
2022-09-05T21:37:53.019Z,5.83
2022-09-05T21:40:21.178Z,7.37
2022-09-05T21:47:35.383Z,8.03
2022-09-05T21:47:41.523Z,7.63
2022-09-05T21:48:22.586Z,6.13
2022-09-05T21:50:51.603Z,7.63
2022-09-05T21:59:16.214Z,8.10
2022-09-05T21:59:32.703Z,5.77
2022-09-05T21:59:36.767Z,6.67
2022-09-05T22:02:08.426Z,6.40
2022-09-05T22:04:40.236Z,5.57
2022-09-05T22:07:08.180Z,7.27
2022-09-05T22:09:34.810Z,6.53
2022-09-05T22:12:06.091Z,6.63
2022-09-05T22:14:43.943Z,7.00
2022-09-05T22:17:10.832Z,6.60
2022-09-05T22:19:38.103Z,6.43
2022-09-05T22:22:18.137Z,7.20
2022-09-05T22:24:59.645Z,6.87
2022-09-05T22:27:27.731Z,7.20
2022-09-05T22:29:57.355Z,6.00
2022-09-05T22:32:34.987Z,5.80
2022-09-05T22:35:27.295Z,6.50
2022-09-05T22:37:55.348Z,8.23
2022-09-05T22:40:26.114Z,6.70
2022-09-05T22:43:01.320Z,6.70
2022-09-05T22:45:28.889Z,7.77
2022-09-05T22:47:55.763Z,8.07
2022-09-05T22:50:23.145Z,7.00
2022-09-05T22:52:49.938Z,6.80
2022-09-05T22:55:17.036Z,6.20
2022-09-05T22:57:44.063Z,6.70
2022-09-05T23:00:11.195Z,6.63
2022-09-05T23:02:37.894Z,7.20
2022-09-05T23:05:05.314Z,6.27
2022-09-05T23:07:32.309Z,7.03
2022-09-05T23:09:59.211Z,6.67
2022-09-05T23:12:25.941Z,5.80
2022-09-05T23:14:52.677Z,6.30
2022-09-05T23:17:19.276Z,6.07
2022-09-05T23:19:45.873Z,6.33
2022-09-05T23:22:12.430Z,6.03
2022-09-05T23:24:39.072Z,7.10
2022-09-05T23:27:05.727Z,7.03
2022-09-05T23:29:32.572Z,5.60
2022-09-05T23:31:59.457Z,5.50
2022-09-05T23:34:26.805Z,5.47
2022-09-05T23:36:53.542Z,5.13
2022-09-05T23:39:20.036Z,5.40
2022-09-05T23:41:46.648Z,5.43
2022-09-05T23:44:13.183Z,5.93
2022-09-05T23:46:40.759Z,5.93
2022-09-05T23:49:07.420Z,6.57
2022-09-05T23:51:33.970Z,5.53
2022-09-05T23:54:00.858Z,5.70
2022-09-05T23:56:27.398Z,6.03
2022-09-05T23:58:54.161Z,6.40
